Fort Klamath, Oregon
Current Conditions -  °F | °C
As of 9:53 AM on Sunday 21 Dec 2014 (Local Time) from KLMT Reporting Station
Light Rain Light Rain  
Wind Chill: 10°   Ceiling: 4600
Heat Index: 10°   Visibility: 8mi
Dew Point:   Wind: 15mph
Humidity: 86%   Direction: 260°W
Pressure: 30.14"   Gusts: NA
Location:  42.7°N, 122°W
Report Text: KLMT 211753Z 26013KT 8SM -RA FEW020 BKN046 OVC055 10/08 A3014 RMK AO2 SLP194 P0002 60041 T01000078 10100 20078 53014
Loading
Personal Weather Stations






























Interactive Weather Map New forecast layout! Learn more

10-Day Weather Forecast

Advertisements
Track Severe Weather on mobile